sensor_id;sensor_type;location;lat;lon;timestamp;P1;durP1;ratioP1;P2;durP2;ratioP2
12480;SDS011;6305;48.398;11.762;2023-03-15T00:01:05;2.93;;;1.33;;
12480;SDS011;6305;48.398;11.762;2023-03-15T00:03:33;2.50;;;1.30;;
12480;SDS011;6305;48.398;11.762;2023-03-15T00:06:01;4.67;;;1.60;;
12480;SDS011;6305;48.398;11.762;2023-03-15T00:08:29;2.65;;;1.70;;
12480;SDS011;6305;48.398;11.762;2023-03-15T00:10:57;3.03;;;1.30;;
12480;SDS011;6305;48.398;11.762;2023-03-15T00:13:26;4.60;;;1.57;;
12480;SDS011;6305;48.398;11.762;2023-03-15T00:15:55;4.70;;;1.55;;
12480;SDS011;6305;48.398;11.762;2023-03-15T00:18:23;2.63;;;1.40;;
12480;SDS011;6305;48.398;11.762;2023-03-15T00:20:51;2.22;;;1.55;;
12480;SDS011;6305;48.398;11.762;2023-03-15T00:23:18;2.63;;;1.50;;
12480;SDS011;6305;48.398;11.762;2023-03-15T00:25:46;1.67;;;1.10;;
12480;SDS011;6305;48.398;11.762;2023-03-15T00:28:14;2.20;;;1.37;;
12480;SDS011;6305;48.398;11.762;2023-03-15T00:30:44;5.10;;;1.40;;
12480;SDS011;6305;48.398;11.762;2023-03-15T00:33:13;1.93;;;1.40;;
12480;SDS011;6305;48.398;11.762;2023-03-15T00:35:42;3.43;;;1.33;;
12480;SDS011;6305;48.398;11.762;2023-03-15T00:38:10;2.53;;;1.30;;
12480;SDS011;6305;48.398;11.762;2023-03-15T00:40:40;3.65;;;1.25;;
12480;SDS011;6305;48.398;11.762;2023-03-15T00:43:07;2.63;;;1.20;;
12480;SDS011;6305;48.398;11.762;2023-03-15T00:45:35;1.52;;;1.00;;
12480;SDS011;6305;48.398;11.762;2023-03-15T00:48:03;2.50;;;0.90;;
12480;SDS011;6305;48.398;11.762;2023-03-15T00:50:31;0.95;;;0.85;;
12480;SDS011;6305;48.398;11.762;2023-03-15T00:52:58;2.33;;;1.10;;
12480;SDS011;6305;48.398;11.762;2023-03-15T00:55:27;1.35;;;0.95;;
12480;SDS011;6305;48.398;11.762;2023-03-15T00:57:54;1.80;;;1.00;;
12480;SDS011;6305;48.398;11.762;2023-03-15T01:00:24;1.83;;;1.50;;
12480;SDS011;6305;48.398;11.762;2023-03-15T01:02:52;1.98;;;1.45;;
12480;SDS011;6305;48.398;11.762;2023-03-15T01:05:21;2.72;;;1.45;;
12480;SDS011;6305;48.398;11.762;2023-03-15T01:07:48;1.80;;;1.40;;
12480;SDS011;6305;48.398;11.762;2023-03-15T01:10:16;2.65;;;1.58;;
12480;SDS011;6305;48.398;11.762;2023-03-15T01:12:46;2.75;;;1.65;;
12480;SDS011;6305;48.398;11.762;2023-03-15T01:15:14;3.67;;;1.87;;
12480;SDS011;6305;48.398;11.762;2023-03-15T01:17:43;2.92;;;1.85;;
12480;SDS011;6305;48.398;11.762;2023-03-15T01:20:10;2.25;;;1.85;;
12480;SDS011;6305;48.398;11.762;2023-03-15T01:22:42;5.18;;;1.90;;
12480;SDS011;6305;48.398;11.762;2023-03-15T01:25:09;1.67;;;1.25;;
12480;SDS011;6305;48.398;11.762;2023-03-15T01:27:36;3.23;;;1.50;;
12480;SDS011;6305;48.398;11.762;2023-03-15T01:30:04;2.13;;;1.50;;
12480;SDS011;6305;48.398;11.762;2023-03-15T01:32:32;3.27;;;1.60;;
12480;SDS011;6305;48.398;11.762;2023-03-15T01:35:00;3.43;;;1.70;;
12480;SDS011;6305;48.398;11.762;2023-03-15T01:37:27;3.65;;;1.80;;
12480;SDS011;6305;48.398;11.762;2023-03-15T01:39:56;2.47;;;1.88;;
12480;SDS011;6305;48.398;11.762;2023-03-15T01:42:23;3.63;;;2.00;;
12480;SDS011;6305;48.398;11.762;2023-03-15T01:44:51;3.23;;;2.10;;
12480;SDS011;6305;48.398;11.762;2023-03-15T01:47:19;2.93;;;2.37;;
12480;SDS011;6305;48.398;11.762;2023-03-15T01:49:51;4.23;;;2.10;;
12480;SDS011;6305;48.398;11.762;2023-03-15T01:52:24;2.95;;;1.83;;
12480;SDS011;6305;48.398;11.762;2023-03-15T01:55:02;2.70;;;2.27;;
12480;SDS011;6305;48.398;11.762;2023-03-15T01:57:33;4.63;;;2.47;;
12480;SDS011;6305;48.398;11.762;2023-03-15T02:00:07;5.00;;;2.93;;
12480;SDS011;6305;48.398;11.762;2023-03-15T02:02:49;3.13;;;2.60;;
12480;SDS011;6305;48.398;11.762;2023-03-15T02:05:24;2.93;;;2.63;;
12480;SDS011;6305;48.398;11.762;2023-03-15T02:07:54;5.10;;;2.85;;
12480;SDS011;6305;48.398;11.762;2023-03-15T02:10:28;3.97;;;2.60;;
12480;SDS011;6305;48.398;11.762;2023-03-15T02:12:59;4.20;;;2.93;;
12480;SDS011;6305;48.398;11.762;2023-03-15T02:15:28;3.40;;;2.92;;
12480;SDS011;6305;48.398;11.762;2023-03-15T02:17:55;4.13;;;3.10;;
12480;SDS011;6305;48.398;11.762;2023-03-15T02:20:26;4.35;;;2.95;;
12480;SDS011;6305;48.398;11.762;2023-03-15T02:22:59;4.53;;;3.70;;
12480;SDS011;6305;48.398;11.762;2023-03-15T02:25:32;4.03;;;3.33;;
12480;SDS011;6305;48.398;11.762;2023-03-15T02:28:06;6.23;;;3.60;;
12480;SDS011;6305;48.398;11.762;2023-03-15T02:30:36;5.17;;;3.33;;
12480;SDS011;6305;48.398;11.762;2023-03-15T02:33:04;4.80;;;3.53;;
12480;SDS011;6305;48.398;11.762;2023-03-15T02:35:36;4.10;;;2.97;;
12480;SDS011;6305;48.398;11.762;2023-03-15T02:38:03;3.80;;;2.90;;
12480;SDS011;6305;48.398;11.762;2023-03-15T02:40:29;5.15;;;3.42;;
12480;SDS011;6305;48.398;11.762;2023-03-15T02:42:58;5.72;;;3.20;;
12480;SDS011;6305;48.398;11.762;2023-03-15T02:45:29;4.30;;;3.08;;
12480;SDS011;6305;48.398;11.762;2023-03-15T02:47:59;4.35;;;2.90;;
12480;SDS011;6305;48.398;11.762;2023-03-15T02:50:29;3.47;;;2.90;;
12480;SDS011;6305;48.398;11.762;2023-03-15T02:52:56;5.27;;;2.77;;
12480;SDS011;6305;48.398;11.762;2023-03-15T02:55:23;6.50;;;3.13;;
12480;SDS011;6305;48.398;11.762;2023-03-15T02:57:50;3.07;;;2.73;;
12480;SDS011;6305;48.398;11.762;2023-03-15T03:00:18;4.13;;;2.33;;
12480;SDS011;6305;48.398;11.762;2023-03-15T03:02:47;3.30;;;2.30;;
12480;SDS011;6305;48.398;11.762;2023-03-15T03:05:14;3.53;;;2.20;;
12480;SDS011;6305;48.398;11.762;2023-03-15T03:07:42;2.57;;;2.03;;
12480;SDS011;6305;48.398;11.762;2023-03-15T03:10:11;4.07;;;2.30;;
12480;SDS011;6305;48.398;11.762;2023-03-15T03:12:55;4.53;;;2.20;;
12480;SDS011;6305;48.398;11.762;2023-03-15T03:15:34;4.83;;;2.40;;
12480;SDS011;6305;48.398;11.762;2023-03-15T03:18:03;5.10;;;2.43;;
12480;SDS011;6305;48.398;11.762;2023-03-15T03:20:30;5.13;;;2.40;;
12480;SDS011;6305;48.398;11.762;2023-03-15T03:22:57;5.00;;;2.43;;
12480;SDS011;6305;48.398;11.762;2023-03-15T03:25:30;4.43;;;2.63;;
12480;SDS011;6305;48.398;11.762;2023-03-15T03:27:57;7.60;;;2.70;;
12480;SDS011;6305;48.398;11.762;2023-03-15T03:30:28;8.50;;;3.53;;
12480;SDS011;6305;48.398;11.762;2023-03-15T03:32:56;7.13;;;3.07;;
12480;SDS011;6305;48.398;11.762;2023-03-15T03:35:24;5.03;;;3.37;;
12480;SDS011;6305;48.398;11.762;2023-03-15T03:37:51;5.53;;;3.50;;
12480;SDS011;6305;48.398;11.762;2023-03-15T03:40:22;6.87;;;3.90;;
12480;SDS011;6305;48.398;11.762;2023-03-15T03:42:49;5.83;;;3.97;;
12480;SDS011;6305;48.398;11.762;2023-03-15T03:45:18;8.77;;;4.03;;
12480;SDS011;6305;48.398;11.762;2023-03-15T03:47:49;10.87;;;4.70;;
12480;SDS011;6305;48.398;11.762;2023-03-15T03:50:16;8.20;;;4.37;;
12480;SDS011;6305;48.398;11.762;2023-03-15T03:52:44;7.83;;;4.30;;
12480;SDS011;6305;48.398;11.762;2023-03-15T03:55:18;10.30;;;4.00;;
12480;SDS011;6305;48.398;11.762;2023-03-15T03:57:49;8.70;;;4.03;;
12480;SDS011;6305;48.398;11.762;2023-03-15T04:00:29;8.20;;;3.60;;
12480;SDS011;6305;48.398;11.762;2023-03-15T04:02:57;6.33;;;3.33;;
12480;SDS011;6305;48.398;11.762;2023-03-15T04:05:24;6.37;;;2.90;;
12480;SDS011;6305;48.398;11.762;2023-03-15T04:07:52;5.37;;;2.83;;
12480;SDS011;6305;48.398;11.762;2023-03-15T04:10:21;7.20;;;2.80;;
12480;SDS011;6305;48.398;11.762;2023-03-15T04:12:51;5.87;;;2.77;;
12480;SDS011;6305;48.398;11.762;2023-03-15T04:15:19;6.80;;;2.73;;
12480;SDS011;6305;48.398;11.762;2023-03-15T04:17:47;3.83;;;2.60;;
12480;SDS011;6305;48.398;11.762;2023-03-15T04:20:20;5.43;;;2.60;;
12480;SDS011;6305;48.398;11.762;2023-03-15T04:22:48;5.47;;;2.60;;
12480;SDS011;6305;48.398;11.762;2023-03-15T04:25:33;4.20;;;2.50;;
12480;SDS011;6305;48.398;11.762;2023-03-15T04:28:11;3.00;;;2.13;;
12480;SDS011;6305;48.398;11.762;2023-03-15T04:31:07;4.57;;;2.27;;
12480;SDS011;6305;48.398;11.762;2023-03-15T04:34:07;3.33;;;2.13;;
12480;SDS011;6305;48.398;11.762;2023-03-15T04:36:52;4.07;;;2.27;;
12480;SDS011;6305;48.398;11.762;2023-03-15T04:39:32;2.57;;;2.00;;
12480;SDS011;6305;48.398;11.762;2023-03-15T04:42:01;4.37;;;2.40;;
12480;SDS011;6305;48.398;11.762;2023-03-15T04:44:51;4.53;;;2.20;;
12480;SDS011;6305;48.398;11.762;2023-03-15T04:47:37;2.97;;;1.87;;
12480;SDS011;6305;48.398;11.762;2023-03-15T04:50:23;3.93;;;1.87;;
12480;SDS011;6305;48.398;11.762;2023-03-15T04:53:00;3.23;;;2.03;;
12480;SDS011;6305;48.398;11.762;2023-03-15T04:55:45;4.67;;;2.20;;
12480;SDS011;6305;48.398;11.762;2023-03-15T04:58:32;3.60;;;1.93;;
12480;SDS011;6305;48.398;11.762;2023-03-15T05:01:26;8.43;;;2.50;;
12480;SDS011;6305;48.398;11.762;2023-03-15T05:04:12;4.17;;;2.10;;
12480;SDS011;6305;48.398;11.762;2023-03-15T05:06:54;7.40;;;2.83;;
12480;SDS011;6305;48.398;11.762;2023-03-15T05:09:40;5.67;;;2.70;;
12480;SDS011;6305;48.398;11.762;2023-03-15T05:12:38;7.23;;;2.97;;
12480;SDS011;6305;48.398;11.762;2023-03-15T05:15:16;6.00;;;3.30;;
12480;SDS011;6305;48.398;11.762;2023-03-15T05:17:59;4.83;;;2.83;;
12480;SDS011;6305;48.398;11.762;2023-03-15T05:20:45;7.83;;;3.10;;
12480;SDS011;6305;48.398;11.762;2023-03-15T05:23:31;10.10;;;3.07;;
12480;SDS011;6305;48.398;11.762;2023-03-15T05:26:24;6.40;;;3.40;;
12480;SDS011;6305;48.398;11.762;2023-03-15T05:29:10;7.30;;;3.77;;
12480;SDS011;6305;48.398;11.762;2023-03-15T05:31:49;7.50;;;3.87;;
12480;SDS011;6305;48.398;11.762;2023-03-15T05:34:38;8.00;;;3.83;;
12480;SDS011;6305;48.398;11.762;2023-03-15T05:37:25;12.00;;;4.47;;
12480;SDS011;6305;48.398;11.762;2023-03-15T05:40:06;8.50;;;4.30;;
12480;SDS011;6305;48.398;11.762;2023-03-15T05:42:44;11.50;;;4.37;;
12480;SDS011;6305;48.398;11.762;2023-03-15T05:45:28;9.20;;;5.60;;
12480;SDS011;6305;48.398;11.762;2023-03-15T05:48:08;13.50;;;5.53;;
12480;SDS011;6305;48.398;11.762;2023-03-15T05:50:46;12.63;;;5.90;;
12480;SDS011;6305;48.398;11.762;2023-03-15T05:53:37;11.90;;;6.17;;
12480;SDS011;6305;48.398;11.762;2023-03-15T05:56:18;11.17;;;6.27;;
12480;SDS011;6305;48.398;11.762;2023-03-15T05:58:54;16.03;;;7.23;;
12480;SDS011;6305;48.398;11.762;2023-03-15T06:01:41;14.20;;;7.13;;
12480;SDS011;6305;48.398;11.762;2023-03-15T06:04:18;18.77;;;7.43;;
12480;SDS011;6305;48.398;11.762;2023-03-15T06:06:45;16.07;;;6.77;;
12480;SDS011;6305;48.398;11.762;2023-03-15T06:09:12;14.00;;;6.83;;
12480;SDS011;6305;48.398;11.762;2023-03-15T06:11:39;12.87;;;7.00;;
12480;SDS011;6305;48.398;11.762;2023-03-15T06:14:10;13.40;;;6.53;;
12480;SDS011;6305;48.398;11.762;2023-03-15T06:16:46;15.00;;;6.43;;
12480;SDS011;6305;48.398;11.762;2023-03-15T06:19:13;14.93;;;6.37;;
12480;SDS011;6305;48.398;11.762;2023-03-15T06:21:41;12.13;;;6.03;;
12480;SDS011;6305;48.398;11.762;2023-03-15T06:24:14;15.27;;;6.57;;
12480;SDS011;6305;48.398;11.762;2023-03-15T06:26:41;13.20;;;6.60;;
12480;SDS011;6305;48.398;11.762;2023-03-15T06:29:09;14.60;;;6.60;;
12480;SDS011;6305;48.398;11.762;2023-03-15T06:31:36;15.13;;;6.20;;
12480;SDS011;6305;48.398;11.762;2023-03-15T06:34:07;12.90;;;6.17;;
12480;SDS011;6305;48.398;11.762;2023-03-15T06:36:34;16.40;;;5.87;;
12480;SDS011;6305;48.398;11.762;2023-03-15T06:39:03;14.93;;;6.33;;
12480;SDS011;6305;48.398;11.762;2023-03-15T06:41:30;10.80;;;5.87;;
12480;SDS011;6305;48.398;11.762;2023-03-15T06:44:04;13.37;;;6.03;;
12480;SDS011;6305;48.398;11.762;2023-03-15T06:46:31;12.00;;;5.73;;
12480;SDS011;6305;48.398;11.762;2023-03-15T06:48:59;14.00;;;6.37;;
12480;SDS011;6305;48.398;11.762;2023-03-15T06:51:26;14.43;;;6.00;;
12480;SDS011;6305;48.398;11.762;2023-03-15T06:53:53;14.67;;;6.10;;
12480;SDS011;6305;48.398;11.762;2023-03-15T06:56:22;13.90;;;5.83;;
12480;SDS011;6305;48.398;11.762;2023-03-15T06:58:49;14.30;;;5.73;;
12480;SDS011;6305;48.398;11.762;2023-03-15T07:01:16;11.48;;;5.35;;
12480;SDS011;6305;48.398;11.762;2023-03-15T07:03:43;9.70;;;4.75;;
12480;SDS011;6305;48.398;11.762;2023-03-15T07:06:09;10.60;;;4.78;;
12480;SDS011;6305;48.398;11.762;2023-03-15T07:08:36;8.77;;;4.70;;
12480;SDS011;6305;48.398;11.762;2023-03-15T07:11:03;6.70;;;4.03;;
12480;SDS011;6305;48.398;11.762;2023-03-15T07:13:32;7.95;;;3.97;;
12480;SDS011;6305;48.398;11.762;2023-03-15T07:15:59;7.60;;;4.45;;
12480;SDS011;6305;48.398;11.762;2023-03-15T07:18:26;6.80;;;3.90;;
12480;SDS011;6305;48.398;11.762;2023-03-15T07:20:56;9.00;;;3.83;;
12480;SDS011;6305;48.398;11.762;2023-03-15T07:23:24;7.97;;;3.92;;
12480;SDS011;6305;48.398;11.762;2023-03-15T07:25:51;8.00;;;3.83;;
12480;SDS011;6305;48.398;11.762;2023-03-15T07:28:19;5.68;;;3.10;;
12480;SDS011;6305;48.398;11.762;2023-03-15T07:30:55;4.47;;;3.08;;
12480;SDS011;6305;48.398;11.762;2023-03-15T07:33:23;5.68;;;3.38;;
12480;SDS011;6305;48.398;11.762;2023-03-15T07:35:51;7.05;;;3.40;;
12480;SDS011;6305;48.398;11.762;2023-03-15T07:38:19;5.47;;;3.45;;
12480;SDS011;6305;48.398;11.762;2023-03-15T07:40:46;7.93;;;3.20;;
12480;SDS011;6305;48.398;11.762;2023-03-15T07:43:13;3.55;;;3.22;;
12480;SDS011;6305;48.398;11.762;2023-03-15T07:45:40;7.43;;;2.97;;
12480;SDS011;6305;48.398;11.762;2023-03-15T07:48:09;5.53;;;3.42;;
12480;SDS011;6305;48.398;11.762;2023-03-15T07:50:36;5.82;;;3.47;;
12480;SDS011;6305;48.398;11.762;2023-03-15T07:53:03;4.40;;;3.50;;
12480;SDS011;6305;48.398;11.762;2023-03-15T07:55:30;4.97;;;3.58;;
12480;SDS011;6305;48.398;11.762;2023-03-15T07:57:57;5.40;;;3.67;;
12480;SDS011;6305;48.398;11.762;2023-03-15T08:00:24;5.90;;;3.70;;
12480;SDS011;6305;48.398;11.762;2023-03-15T08:02:51;6.50;;;3.92;;
12480;SDS011;6305;48.398;11.762;2023-03-15T08:05:20;8.23;;;4.57;;
12480;SDS011;6305;48.398;11.762;2023-03-15T08:07:47;5.72;;;4.00;;
12480;SDS011;6305;48.398;11.762;2023-03-15T08:10:15;6.10;;;4.15;;
12480;SDS011;6305;48.398;11.762;2023-03-15T08:12:42;7.90;;;4.60;;
12480;SDS011;6305;48.398;11.762;2023-03-15T08:15:09;7.65;;;4.75;;
12480;SDS011;6305;48.398;11.762;2023-03-15T08:17:37;10.63;;;5.15;;
12480;SDS011;6305;48.398;11.762;2023-03-15T08:20:05;6.13;;;4.40;;
12480;SDS011;6305;48.398;11.762;2023-03-15T08:22:37;9.73;;;4.63;;
12480;SDS011;6305;48.398;11.762;2023-03-15T08:25:04;6.53;;;4.38;;
12480;SDS011;6305;48.398;11.762;2023-03-15T08:27:32;10.88;;;4.88;;
12480;SDS011;6305;48.398;11.762;2023-03-15T08:29:59;7.20;;;3.75;;
12480;SDS011;6305;48.398;11.762;2023-03-15T08:32:26;4.63;;;3.10;;
12480;SDS011;6305;48.398;11.762;2023-03-15T08:34:53;5.43;;;3.30;;
12480;SDS011;6305;48.398;11.762;2023-03-15T08:37:20;5.30;;;3.50;;
12480;SDS011;6305;48.398;11.762;2023-03-15T08:39:48;5.20;;;3.38;;
12480;SDS011;6305;48.398;11.762;2023-03-15T08:42:22;6.07;;;3.80;;
12480;SDS011;6305;48.398;11.762;2023-03-15T08:44:49;4.90;;;3.25;;
12480;SDS011;6305;48.398;11.762;2023-03-15T08:47:16;4.63;;;2.72;;
12480;SDS011;6305;48.398;11.762;2023-03-15T08:49:43;8.27;;;2.47;;
12480;SDS011;6305;48.398;11.762;2023-03-15T08:52:10;5.50;;;2.50;;
12480;SDS011;6305;48.398;11.762;2023-03-15T08:54:37;4.18;;;2.60;;
12480;SDS011;6305;48.398;11.762;2023-03-15T08:57:06;4.18;;;3.00;;
12480;SDS011;6305;48.398;11.762;2023-03-15T08:59:33;6.20;;;2.88;;
12480;SDS011;6305;48.398;11.762;2023-03-15T09:01:59;4.97;;;2.83;;
12480;SDS011;6305;48.398;11.762;2023-03-15T09:04:27;5.47;;;3.15;;
12480;SDS011;6305;48.398;11.762;2023-03-15T09:06:54;6.60;;;3.55;;
12480;SDS011;6305;48.398;11.762;2023-03-15T09:09:24;7.05;;;3.33;;
12480;SDS011;6305;48.398;11.762;2023-03-15T09:11:51;5.28;;;3.33;;
12480;SDS011;6305;48.398;11.762;2023-03-15T09:14:21;6.53;;;3.33;;
12480;SDS011;6305;48.398;11.762;2023-03-15T09:16:48;6.45;;;3.90;;
12480;SDS011;6305;48.398;11.762;2023-03-15T09:19:14;6.35;;;3.25;;
12480;SDS011;6305;48.398;11.762;2023-03-15T09:21:41;6.15;;;3.20;;
12480;SDS011;6305;48.398;11.762;2023-03-15T09:24:09;9.55;;;3.60;;
12480;SDS011;6305;48.398;11.762;2023-03-15T09:26:37;11.63;;;3.70;;
12480;SDS011;6305;48.398;11.762;2023-03-15T09:29:04;4.93;;;3.08;;
12480;SDS011;6305;48.398;11.762;2023-03-15T09:31:33;8.38;;;3.63;;
12480;SDS011;6305;48.398;11.762;2023-03-15T09:34:00;5.38;;;3.10;;
12480;SDS011;6305;48.398;11.762;2023-03-15T09:36:27;6.70;;;3.22;;
12480;SDS011;6305;48.398;11.762;2023-03-15T09:38:55;9.27;;;3.88;;
12480;SDS011;6305;48.398;11.762;2023-03-15T09:41:27;5.18;;;3.00;;
12480;SDS011;6305;48.398;11.762;2023-03-15T09:44:08;7.82;;;3.13;;
12480;SDS011;6305;48.398;11.762;2023-03-15T09:46:43;4.68;;;2.63;;
12480;SDS011;6305;48.398;11.762;2023-03-15T09:49:20;5.95;;;2.63;;
12480;SDS011;6305;48.398;11.762;2023-03-15T09:51:58;4.15;;;2.58;;
12480;SDS011;6305;48.398;11.762;2023-03-15T09:54:31;5.55;;;2.80;;
12480;SDS011;6305;48.398;11.762;2023-03-15T09:57:05;5.32;;;2.90;;
12480;SDS011;6305;48.398;11.762;2023-03-15T09:59:40;6.15;;;2.70;;
12480;SDS011;6305;48.398;11.762;2023-03-15T10:02:15;6.38;;;2.53;;
12480;SDS011;6305;48.398;11.762;2023-03-15T10:04:47;5.53;;;2.70;;
12480;SDS011;6305;48.398;11.762;2023-03-15T10:07:17;5.35;;;2.42;;
12480;SDS011;6305;48.398;11.762;2023-03-15T10:09:44;3.58;;;1.73;;
12480;SDS011;6305;48.398;11.762;2023-03-15T10:12:12;4.60;;;1.85;;
12480;SDS011;6305;48.398;11.762;2023-03-15T10:14:49;4.60;;;1.90;;
12480;SDS011;6305;48.398;11.762;2023-03-15T10:17:36;3.63;;;1.80;;
12480;SDS011;6305;48.398;11.762;2023-03-15T10:20:12;5.25;;;2.17;;
12480;SDS011;6305;48.398;11.762;2023-03-15T10:22:44;4.45;;;1.98;;
12480;SDS011;6305;48.398;11.762;2023-03-15T10:25:15;6.28;;;2.25;;
12480;SDS011;6305;48.398;11.762;2023-03-15T10:27:46;3.78;;;2.00;;
12480;SDS011;6305;48.398;11.762;2023-03-15T10:30:18;4.00;;;2.10;;
12480;SDS011;6305;48.398;11.762;2023-03-15T10:32:50;3.92;;;2.05;;
12480;SDS011;6305;48.398;11.762;2023-03-15T10:35:20;2.30;;;1.73;;
12480;SDS011;6305;48.398;11.762;2023-03-15T10:37:47;3.90;;;1.98;;
12480;SDS011;6305;48.398;11.762;2023-03-15T10:40:14;4.20;;;1.80;;
12480;SDS011;6305;48.398;11.762;2023-03-15T10:43:04;3.72;;;2.20;;
12480;SDS011;6305;48.398;11.762;2023-03-15T10:45:38;4.28;;;1.90;;
12480;SDS011;6305;48.398;11.762;2023-03-15T10:48:07;4.20;;;1.80;;
12480;SDS011;6305;48.398;11.762;2023-03-15T10:50:36;6.60;;;2.00;;
12480;SDS011;6305;48.398;11.762;2023-03-15T10:53:07;5.22;;;2.20;;
12480;SDS011;6305;48.398;11.762;2023-03-15T10:55:36;5.53;;;2.00;;
12480;SDS011;6305;48.398;11.762;2023-03-15T10:58:13;5.00;;;2.00;;
12480;SDS011;6305;48.398;11.762;2023-03-15T11:00:47;3.20;;;1.77;;
12480;SDS011;6305;48.398;11.762;2023-03-15T11:03:20;4.50;;;2.10;;
12480;SDS011;6305;48.398;11.762;2023-03-15T11:05:49;4.20;;;1.75;;
12480;SDS011;6305;48.398;11.762;2023-03-15T11:08:18;3.70;;;1.90;;
12480;SDS011;6305;48.398;11.762;2023-03-15T11:10:53;3.85;;;1.70;;
12480;SDS011;6305;48.398;11.762;2023-03-15T11:13:21;3.72;;;1.58;;
12480;SDS011;6305;48.398;11.762;2023-03-15T11:15:57;4.97;;;1.70;;
12480;SDS011;6305;48.398;11.762;2023-03-15T11:18:31;3.03;;;1.48;;
12480;SDS011;6305;48.398;11.762;2023-03-15T11:21:01;3.95;;;1.80;;
12480;SDS011;6305;48.398;11.762;2023-03-15T11:23:32;4.07;;;1.88;;
12480;SDS011;6305;48.398;11.762;2023-03-15T11:26:02;3.17;;;1.50;;
12480;SDS011;6305;48.398;11.762;2023-03-15T11:28:31;5.57;;;1.60;;
12480;SDS011;6305;48.398;11.762;2023-03-15T11:31:01;3.13;;;1.60;;
12480;SDS011;6305;48.398;11.762;2023-03-15T11:33:33;4.40;;;1.67;;
12480;SDS011;6305;48.398;11.762;2023-03-15T11:36:09;4.30;;;1.80;;
12480;SDS011;6305;48.398;11.762;2023-03-15T11:38:39;2.08;;;1.48;;
12480;SDS011;6305;48.398;11.762;2023-03-15T11:41:10;2.45;;;1.48;;
12480;SDS011;6305;48.398;11.762;2023-03-15T11:43:51;3.50;;;1.52;;
12480;SDS011;6305;48.398;11.762;2023-03-15T11:46:26;2.58;;;1.80;;
12480;SDS011;6305;48.398;11.762;2023-03-15T11:49:00;2.75;;;1.30;;
12480;SDS011;6305;48.398;11.762;2023-03-15T11:51:34;2.38;;;1.50;;
12480;SDS011;6305;48.398;11.762;2023-03-15T11:54:04;2.58;;;1.38;;
12480;SDS011;6305;48.398;11.762;2023-03-15T11:56:45;3.47;;;1.58;;
12480;SDS011;6305;48.398;11.762;2023-03-15T11:59:15;2.78;;;1.48;;
12480;SDS011;6305;48.398;11.762;2023-03-15T12:01:44;2.70;;;1.20;;
12480;SDS011;6305;48.398;11.762;2023-03-15T12:07:27;3.03;;;1.40;;
12480;SDS011;6305;48.398;11.762;2023-03-15T12:09:56;2.70;;;1.50;;
12480;SDS011;6305;48.398;11.762;2023-03-15T12:12:44;3.35;;;1.33;;
12480;SDS011;6305;48.398;11.762;2023-03-15T12:18:11;2.67;;;1.60;;
12480;SDS011;6305;48.398;11.762;2023-03-15T12:20:44;3.90;;;1.27;;
12480;SDS011;6305;48.398;11.762;2023-03-15T12:23:21;4.35;;;1.50;;
12480;SDS011;6305;48.398;11.762;2023-03-15T12:25:56;4.88;;;1.45;;
12480;SDS011;6305;48.398;11.762;2023-03-15T12:28:33;2.08;;;1.20;;
12480;SDS011;6305;48.398;11.762;2023-03-15T12:31:03;2.65;;;1.23;;
12480;SDS011;6305;48.398;11.762;2023-03-15T12:33:33;3.92;;;1.60;;
12480;SDS011;6305;48.398;11.762;2023-03-15T12:36:15;1.98;;;0.93;;
12480;SDS011;6305;48.398;11.762;2023-03-15T12:38:59;2.15;;;0.93;;
12480;SDS011;6305;48.398;11.762;2023-03-15T12:41:33;4.35;;;1.20;;
12480;SDS011;6305;48.398;11.762;2023-03-15T12:44:16;4.10;;;1.20;;
12480;SDS011;6305;48.398;11.762;2023-03-15T12:46:52;2.53;;;1.30;;
12480;SDS011;6305;48.398;11.762;2023-03-15T12:49:27;1.63;;;1.17;;
12480;SDS011;6305;48.398;11.762;2023-03-15T12:52:01;1.65;;;1.10;;
12480;SDS011;6305;48.398;11.762;2023-03-15T12:54:31;3.03;;;1.20;;
12480;SDS011;6305;48.398;11.762;2023-03-15T12:57:08;2.90;;;1.20;;
12480;SDS011;6305;48.398;11.762;2023-03-15T12:59:39;2.05;;;1.05;;
12480;SDS011;6305;48.398;11.762;2023-03-15T13:02:18;2.13;;;1.10;;
12480;SDS011;6305;48.398;11.762;2023-03-15T13:04:57;3.75;;;1.40;;
12480;SDS011;6305;48.398;11.762;2023-03-15T13:07:29;2.28;;;1.30;;
12480;SDS011;6305;48.398;11.762;2023-03-15T13:10:11;2.15;;;1.10;;
12480;SDS011;6305;48.398;11.762;2023-03-15T13:12:50;1.58;;;1.15;;
12480;SDS011;6305;48.398;11.762;2023-03-15T13:15:25;7.13;;;1.40;;
12480;SDS011;6305;48.398;11.762;2023-03-15T13:17:57;1.50;;;0.93;;
12480;SDS011;6305;48.398;11.762;2023-03-15T13:20:37;2.25;;;1.20;;
12480;SDS011;6305;48.398;11.762;2023-03-15T13:23:14;2.30;;;1.30;;
12480;SDS011;6305;48.398;11.762;2023-03-15T13:25:46;1.80;;;1.20;;
12480;SDS011;6305;48.398;11.762;2023-03-15T13:28:20;3.10;;;1.27;;
12480;SDS011;6305;48.398;11.762;2023-03-15T13:30:50;2.15;;;1.05;;
12480;SDS011;6305;48.398;11.762;2023-03-15T13:33:19;2.10;;;1.13;;
12480;SDS011;6305;48.398;11.762;2023-03-15T13:35:52;2.63;;;1.20;;
12480;SDS011;6305;48.398;11.762;2023-03-15T13:38:26;4.18;;;1.23;;
12480;SDS011;6305;48.398;11.762;2023-03-15T13:40:56;1.70;;;1.00;;
12480;SDS011;6305;48.398;11.762;2023-03-15T13:43:24;4.32;;;1.27;;
12480;SDS011;6305;48.398;11.762;2023-03-15T13:45:55;2.10;;;0.95;;
12480;SDS011;6305;48.398;11.762;2023-03-15T13:48:25;1.88;;;1.00;;
12480;SDS011;6305;48.398;11.762;2023-03-15T13:51:01;1.95;;;1.00;;
12480;SDS011;6305;48.398;11.762;2023-03-15T13:53:33;2.20;;;1.20;;
12480;SDS011;6305;48.398;11.762;2023-03-15T13:56:04;4.75;;;1.20;;
12480;SDS011;6305;48.398;11.762;2023-03-15T13:58:33;2.58;;;1.38;;
12480;SDS011;6305;48.398;11.762;2023-03-15T14:01:03;1.58;;;1.00;;
12480;SDS011;6305;48.398;11.762;2023-03-15T14:03:36;4.00;;;1.30;;
12480;SDS011;6305;48.398;11.762;2023-03-15T14:06:09;2.25;;;1.20;;
12480;SDS011;6305;48.398;11.762;2023-03-15T14:08:39;2.33;;;1.20;;
12480;SDS011;6305;48.398;11.762;2023-03-15T14:11:08;1.40;;;0.90;;
12480;SDS011;6305;48.398;11.762;2023-03-15T14:13:47;1.80;;;1.10;;
12480;SDS011;6305;48.398;11.762;2023-03-15T14:16:16;1.02;;;0.90;;
12480;SDS011;6305;48.398;11.762;2023-03-15T14:19:05;3.85;;;1.08;;
12480;SDS011;6305;48.398;11.762;2023-03-15T14:21:40;3.25;;;1.00;;
12480;SDS011;6305;48.398;11.762;2023-03-15T14:24:13;4.68;;;1.13;;
12480;SDS011;6305;48.398;11.762;2023-03-15T14:26:43;1.40;;;0.85;;
12480;SDS011;6305;48.398;11.762;2023-03-15T14:29:15;3.30;;;1.20;;
12480;SDS011;6305;48.398;11.762;2023-03-15T14:31:48;1.63;;;0.85;;
12480;SDS011;6305;48.398;11.762;2023-03-15T14:34:17;3.35;;;1.13;;
12480;SDS011;6305;48.398;11.762;2023-03-15T14:36:50;1.50;;;1.00;;
12480;SDS011;6305;48.398;11.762;2023-03-15T14:39:25;2.45;;;0.90;;
12480;SDS011;6305;48.398;11.762;2023-03-15T14:41:55;4.40;;;1.30;;
12480;SDS011;6305;48.398;11.762;2023-03-15T14:44:21;1.88;;;1.00;;
12480;SDS011;6305;48.398;11.762;2023-03-15T14:46:48;1.63;;;1.10;;
12480;SDS011;6305;48.398;11.762;2023-03-15T14:49:18;5.57;;;1.13;;
12480;SDS011;6305;48.398;11.762;2023-03-15T14:51:50;2.45;;;1.15;;
12480;SDS011;6305;48.398;11.762;2023-03-15T14:54:18;2.67;;;1.30;;
12480;SDS011;6305;48.398;11.762;2023-03-15T14:56:47;1.35;;;1.17;;
12480;SDS011;6305;48.398;11.762;2023-03-15T14:59:14;1.63;;;1.20;;
12480;SDS011;6305;48.398;11.762;2023-03-15T15:01:45;3.17;;;1.60;;
12480;SDS011;6305;48.398;11.762;2023-03-15T15:04:15;3.90;;;1.27;;
12480;SDS011;6305;48.398;11.762;2023-03-15T15:06:44;3.05;;;1.55;;
12480;SDS011;6305;48.398;11.762;2023-03-15T15:09:17;2.80;;;1.30;;
12480;SDS011;6305;48.398;11.762;2023-03-15T15:11:49;7.03;;;1.90;;
12480;SDS011;6305;48.398;11.762;2023-03-15T15:14:16;7.22;;;2.83;;
12480;SDS011;6305;48.398;11.762;2023-03-15T15:16:43;4.03;;;2.58;;
12480;SDS011;6305;48.398;11.762;2023-03-15T15:19:11;4.00;;;2.58;;